createdAt,value
2023-03-11T00:00:47.423Z,99487.44
2023-03-11T00:03:17.297Z,99482.91
2023-03-11T00:05:45.977Z,99485.09
2023-03-11T00:08:14.998Z,99486.50
2023-03-11T00:10:44.385Z,99486.38
2023-03-11T00:13:13.175Z,99484.72
2023-03-11T00:15:42.272Z,99480.50
2023-03-11T00:18:11.754Z,99471.28
2023-03-11T00:20:41.998Z,99467.91
2023-03-11T00:23:10.447Z,99474.75
2023-03-11T00:25:39.179Z,99469.72
2023-03-11T00:28:07.930Z,99477.25
2023-03-11T00:30:36.008Z,99474.16
2023-03-11T00:33:04.189Z,99476.06
2023-03-11T00:35:34.507Z,99472.81
2023-03-11T00:38:03.827Z,99472.13
2023-03-11T00:40:32.969Z,99474.25
2023-03-11T00:43:04.073Z,99478.94
2023-03-11T00:45:32.417Z,99469.72
2023-03-11T00:48:00.455Z,99466.56
2023-03-11T00:50:29.534Z,99468.13
2023-03-11T00:52:59.459Z,99472.81
2023-03-11T00:55:29.019Z,99473.13
2023-03-11T00:57:58.892Z,99471.47
2023-03-11T01:00:30.345Z,99477.56
2023-03-11T01:02:58.738Z,99472.63
2023-03-11T01:05:28.329Z,99479.41
2023-03-11T01:07:56.729Z,99473.31
2023-03-11T01:10:26.602Z,99478.94
2023-03-11T01:12:54.906Z,99482.25
2023-03-11T01:15:24.795Z,99483.78
2023-03-11T01:17:52.891Z,99481.38
2023-03-11T01:20:21.283Z,99488.78
2023-03-11T01:22:49.341Z,99490.69
2023-03-11T01:25:18.609Z,99484.91
2023-03-11T01:27:48.202Z,99476.69
2023-03-11T01:30:17.717Z,99476.06
2023-03-11T01:32:46.759Z,99479.88
2023-03-11T01:35:15.781Z,99482.78
2023-03-11T01:37:43.934Z,99473.47
2023-03-11T01:40:15.393Z,99477.56
2023-03-11T01:42:43.441Z,99481.63
2023-03-11T01:45:27.672Z,99476.63
2023-03-11T01:47:56.046Z,99484.13
2023-03-11T01:50:24.369Z,99481.38
2023-03-11T01:52:52.653Z,99483.63
2023-03-11T01:55:21.138Z,99476.44
2023-03-11T01:57:49.577Z,99478.69
2023-03-11T02:00:18.036Z,99478.78
2023-03-11T02:02:52.459Z,99483.44
2023-03-11T02:05:22.224Z,99480.81
2023-03-11T02:07:50.949Z,99476.16
2023-03-11T02:10:20.345Z,99481.41
2023-03-11T02:12:49.765Z,99477.94
2023-03-11T02:15:25.205Z,99489.78
2023-03-11T02:17:56.500Z,99491.19
2023-03-11T02:20:31.655Z,99483.78
2023-03-11T02:23:01.487Z,99486.88
2023-03-11T02:25:34.104Z,99480.84
2023-03-11T02:28:06.738Z,99484.84
2023-03-11T02:30:35.266Z,99473.72
2023-03-11T02:33:04.400Z,99476.00
2023-03-11T02:35:51.370Z,99485.78
2023-03-11T02:38:19.805Z,99475.50
2023-03-11T02:40:51.791Z,99479.91
2023-03-11T02:43:26.104Z,99478.00
2023-03-11T02:45:54.978Z,99485.91
2023-03-11T02:48:24.128Z,99473.78
2023-03-11T02:50:52.553Z,99484.00
2023-03-11T02:53:21.196Z,99484.84
2023-03-11T02:55:49.274Z,99483.47
2023-03-11T02:58:17.455Z,99481.88
2023-03-11T03:00:47.100Z,99480.16
2023-03-11T03:03:15.979Z,99475.31
2023-03-11T03:05:44.234Z,99483.75
2023-03-11T03:08:12.312Z,99474.28
2023-03-11T03:10:40.426Z,99483.91
2023-03-11T03:13:09.094Z,99477.88
2023-03-11T03:15:37.163Z,99470.41
2023-03-11T03:18:06.855Z,99478.22
2023-03-11T03:20:35.075Z,99477.38
2023-03-11T03:23:04.061Z,99472.97
2023-03-11T03:25:33.687Z,99481.34
2023-03-11T03:28:05.910Z,99487.78
2023-03-11T03:30:37.176Z,99481.56
2023-03-11T03:33:07.172Z,99477.59
2023-03-11T03:35:35.562Z,99482.03
2023-03-11T03:38:10.889Z,99486.75
2023-03-11T03:40:39.832Z,99477.50
2023-03-11T03:43:09.153Z,99482.53
2023-03-11T03:45:38.621Z,99480.44
2023-03-11T03:48:08.774Z,99477.19
2023-03-11T03:50:41.961Z,99466.53
2023-03-11T03:53:13.508Z,99469.16
2023-03-11T03:55:42.029Z,99476.22
2023-03-11T03:58:11.029Z,99466.38
2023-03-11T04:00:40.067Z,99462.56
2023-03-11T04:03:09.540Z,99463.22
2023-03-11T04:05:47.577Z,99472.03
2023-03-11T04:08:15.940Z,99453.84
2023-03-11T04:10:44.944Z,99463.22
2023-03-11T04:13:14.923Z,99458.59
2023-03-11T04:15:45.536Z,99454.28
2023-03-11T04:18:15.043Z,99456.09
2023-03-11T04:20:43.123Z,99448.63
2023-03-11T04:23:11.286Z,99447.56
2023-03-11T04:25:39.442Z,99443.16
2023-03-11T04:28:07.724Z,99439.44
2023-03-11T04:30:36.081Z,99442.53
2023-03-11T04:33:04.344Z,99431.19
2023-03-11T04:35:34.359Z,99429.06
2023-03-11T04:38:02.665Z,99423.50
2023-03-11T04:40:31.516Z,99417.28
2023-03-11T04:42:59.662Z,99423.50
2023-03-11T04:45:27.828Z,99420.13
2023-03-11T04:47:58.848Z,99419.41
2023-03-11T04:50:27.709Z,99421.50
2023-03-11T04:52:57.730Z,99426.31
2023-03-11T04:55:26.112Z,99420.22
2023-03-11T04:57:54.471Z,99413.94
2023-03-11T05:00:25.279Z,99413.50
2023-03-11T05:03:02.812Z,99418.53
2023-03-11T05:05:31.514Z,99426.00
2023-03-11T05:08:01.079Z,99417.06
2023-03-11T05:10:32.114Z,99421.91
2023-03-11T05:13:03.086Z,99409.50
2023-03-11T05:15:34.930Z,99405.72
2023-03-11T05:18:04.251Z,99400.47
2023-03-11T05:20:33.621Z,99409.41
2023-03-11T05:23:03.320Z,99406.47
2023-03-11T05:25:33.493Z,99404.06
2023-03-11T05:28:02.612Z,99411.50
2023-03-11T05:30:31.941Z,99407.09
2023-03-11T05:33:00.159Z,99408.03
2023-03-11T05:35:28.951Z,99405.97
2023-03-11T05:37:57.481Z,99403.22
2023-03-11T05:40:30.299Z,99413.09
2023-03-11T05:42:58.460Z,99402.06
2023-03-11T05:45:28.711Z,99405.75
2023-03-11T05:48:00.097Z,99403.00
2023-03-11T05:50:28.346Z,99404.88
2023-03-11T05:52:56.889Z,99400.38
2023-03-11T05:55:25.137Z,99404.50
2023-03-11T05:57:55.003Z,99398.38
2023-03-11T06:00:24.068Z,99402.06
2023-03-11T06:02:54.306Z,99393.63
2023-03-11T06:05:22.803Z,99401.75
2023-03-11T06:07:53.321Z,99396.06
2023-03-11T06:10:23.476Z,99398.59
2023-03-11T06:12:51.655Z,99396.38
2023-03-11T06:15:30.488Z,99403.84
2023-03-11T06:17:59.476Z,99409.50
2023-03-11T06:20:27.703Z,99395.97
2023-03-11T06:22:56.041Z,99401.63
2023-03-11T06:25:25.144Z,99402.78
2023-03-11T06:27:54.930Z,99401.22
2023-03-11T06:30:25.437Z,99393.31
2023-03-11T06:33:01.956Z,99392.16
2023-03-11T06:35:30.005Z,99396.28
2023-03-11T06:37:58.237Z,99385.97
2023-03-11T06:40:26.562Z,99389.22
2023-03-11T06:42:54.790Z,99384.19
2023-03-11T06:45:25.515Z,99371.47
2023-03-11T06:47:54.348Z,99386.63
2023-03-11T06:50:24.408Z,99380.41
2023-03-11T06:52:54.649Z,99394.06
2023-03-11T06:55:22.756Z,99389.13
2023-03-11T06:57:50.866Z,99383.03
2023-03-11T07:00:19.343Z,99376.53
2023-03-11T07:02:53.243Z,99379.44
2023-03-11T07:05:21.904Z,99381.25
2023-03-11T07:07:56.735Z,99379.38
2023-03-11T07:10:26.535Z,99377.69
2023-03-11T07:12:54.635Z,99370.53
2023-03-11T07:15:22.645Z,99371.16
2023-03-11T07:17:50.808Z,99362.97
2023-03-11T07:20:20.240Z,99361.28
2023-03-11T07:22:48.430Z,99362.34
2023-03-11T07:25:17.943Z,99352.03
2023-03-11T07:27:46.035Z,99353.94
2023-03-11T07:30:14.749Z,99352.25
2023-03-11T07:32:43.077Z,99353.59
2023-03-11T07:35:11.351Z,99356.03
2023-03-11T07:37:39.400Z,99341.34
2023-03-11T07:40:08.606Z,99339.13
2023-03-11T07:42:38.105Z,99332.50
2023-03-11T07:45:08.445Z,99316.00
2023-03-11T07:47:36.672Z,99317.44
2023-03-11T07:50:04.806Z,99301.06
2023-03-11T07:52:33.249Z,99311.78
2023-03-11T07:55:01.393Z,99318.63
2023-03-11T07:57:29.465Z,99301.06
2023-03-11T07:59:58.940Z,99290.69
2023-03-11T08:02:27.150Z,99292.97
2023-03-11T08:04:56.893Z,99280.47
2023-03-11T08:07:25.134Z,99292.66
2023-03-11T08:09:53.247Z,99280.16
2023-03-11T08:12:21.228Z,99279.91
2023-03-11T08:14:49.358Z,99281.69
2023-03-11T08:17:18.767Z,99272.16
2023-03-11T08:19:46.855Z,99264.66
2023-03-11T08:22:14.932Z,99257.41
2023-03-11T08:24:42.907Z,99266.75
2023-03-11T08:27:12.450Z,99251.38
2023-03-11T08:29:40.577Z,99254.09
2023-03-11T08:32:08.818Z,99241.63
2023-03-11T08:34:39.595Z,99237.88
2023-03-11T08:37:07.782Z,99236.81
2023-03-11T08:39:35.999Z,99233.34
2023-03-11T08:42:04.334Z,99232.56
2023-03-11T08:44:32.554Z,99235.03
2023-03-11T08:47:01.747Z,99235.53
2023-03-11T08:49:29.924Z,99246.34
2023-03-11T08:51:59.320Z,99233.06
2023-03-11T08:54:27.304Z,99236.44
2023-03-11T08:56:55.338Z,99248.06
2023-03-11T08:59:23.442Z,99238.84
2023-03-11T09:01:51.468Z,99232.88
2023-03-11T09:04:19.482Z,99229.19
2023-03-11T09:06:49.012Z,99233.63
2023-03-11T09:09:20.495Z,99219.47
2023-03-11T09:11:48.576Z,99216.00
2023-03-11T09:14:16.747Z,99215.19
2023-03-11T09:16:44.820Z,99205.81
2023-03-11T09:19:12.921Z,99194.38
2023-03-11T09:21:41.024Z,99203.09
2023-03-11T09:24:09.911Z,99202.25
2023-03-11T09:26:39.393Z,99196.47
2023-03-11T09:29:07.433Z,99194.22
2023-03-11T09:31:35.482Z,99196.97
2023-03-11T09:34:03.623Z,99191.13
2023-03-11T09:36:31.897Z,99190.56
2023-03-11T09:38:59.958Z,99187.53
2023-03-11T09:41:30.981Z,99186.97
2023-03-11T09:44:10.435Z,99195.38
2023-03-11T09:46:58.704Z,99179.09
2023-03-11T09:49:32.369Z,99183.66
2023-03-11T09:52:06.102Z,99178.88
2023-03-11T09:54:38.293Z,99182.25
2023-03-11T09:57:07.648Z,99179.25
2023-03-11T09:59:38.533Z,99174.22
2023-03-11T10:02:06.682Z,99154.97
2023-03-11T10:04:38.991Z,99156.41
2023-03-11T10:07:11.500Z,99145.56
2023-03-11T10:09:42.007Z,99141.22
2023-03-11T10:12:25.158Z,99133.13
2023-03-11T10:14:58.985Z,99134.91
2023-03-11T10:17:38.098Z,99134.53
2023-03-11T10:20:13.062Z,99122.13
2023-03-11T10:22:47.483Z,99115.53
2023-03-11T10:25:17.364Z,99108.84
2023-03-11T10:27:48.669Z,99097.94
2023-03-11T10:30:24.735Z,99103.69
2023-03-11T10:32:56.264Z,99104.03
2023-03-11T10:35:25.311Z,99101.75
2023-03-11T10:37:55.375Z,99081.44
2023-03-11T10:40:27.359Z,99073.44
2023-03-11T10:42:56.455Z,99067.09
2023-03-11T10:45:26.803Z,99070.72
2023-03-11T10:47:57.244Z,99070.44
2023-03-11T10:50:25.466Z,99062.09
2023-03-11T10:53:08.261Z,99061.13
2023-03-11T10:55:36.337Z,99055.16
2023-03-11T10:58:09.109Z,99056.22
2023-03-11T11:00:38.601Z,99043.44
2023-03-11T11:03:06.916Z,99037.22
2023-03-11T11:05:35.441Z,99030.88
2023-03-11T11:08:04.943Z,99031.47
2023-03-11T11:10:35.765Z,99021.31
2023-03-11T11:13:05.102Z,99028.47
2023-03-11T11:15:34.940Z,99013.63
2023-03-11T11:18:05.825Z,99010.75
2023-03-11T11:20:34.542Z,99001.28
2023-03-11T11:23:04.820Z,98996.38
2023-03-11T11:25:34.307Z,99000.56
2023-03-11T11:28:05.352Z,98999.00
2023-03-11T11:30:33.462Z,99004.28
2023-03-11T11:33:20.180Z,98985.63
2023-03-11T11:35:53.169Z,98994.47
2023-03-11T11:38:24.120Z,98980.97
2023-03-11T11:40:52.422Z,98984.81
2023-03-11T11:43:22.965Z,98974.97
2023-03-11T11:45:56.138Z,98964.69
2023-03-11T11:48:27.027Z,98965.88
2023-03-11T11:50:58.879Z,98978.31
2023-03-11T11:53:31.908Z,98963.59
2023-03-11T11:56:00.359Z,98968.75
2023-03-11T11:58:28.719Z,98971.97
2023-03-11T12:01:04.758Z,98971.13
2023-03-11T12:03:43.681Z,98958.66
2023-03-11T12:06:18.556Z,98961.50
2023-03-11T12:08:49.226Z,98964.03
2023-03-11T12:11:22.313Z,98958.75
2023-03-11T12:14:00.327Z,98958.50
2023-03-11T12:16:32.014Z,98963.28
2023-03-11T12:19:04.057Z,98938.53
2023-03-11T12:21:44.633Z,98945.44
2023-03-11T12:24:24.441Z,98946.56
2023-03-11T12:26:53.979Z,98940.97
2023-03-11T12:29:25.635Z,98937.81
2023-03-11T12:31:55.201Z,98943.53
2023-03-11T12:34:24.855Z,98931.72
2023-03-11T12:37:03.471Z,98929.91
2023-03-11T12:39:32.870Z,98935.16
2023-03-11T12:42:16.368Z,98931.34
2023-03-11T12:44:44.597Z,98924.88
2023-03-11T12:47:20.388Z,98924.63
2023-03-11T12:49:48.989Z,98918.97
2023-03-11T12:52:23.448Z,98916.31
2023-03-11T12:55:11.805Z,98921.00
2023-03-11T12:57:50.575Z,98920.75
2023-03-11T13:00:30.270Z,98924.34
2023-03-11T13:03:13.199Z,98918.00
2023-03-11T13:05:49.936Z,98909.50
2023-03-11T13:08:21.596Z,98907.44
2023-03-11T13:10:50.859Z,98907.91
2023-03-11T13:13:31.710Z,98905.16
2023-03-11T13:16:19.848Z,98890.75
2023-03-11T13:18:49.278Z,98889.41
2023-03-11T13:21:32.224Z,98887.94
2023-03-11T13:24:15.074Z,98879.19
2023-03-11T13:26:47.390Z,98867.44
2023-03-11T13:29:44.008Z,98861.59
2023-03-11T13:32:21.687Z,98854.66
2023-03-11T13:34:56.203Z,98851.75
2023-03-11T13:37:30.906Z,98854.66
2023-03-11T13:40:05.590Z,98850.72
2023-03-11T13:42:38.896Z,98841.16
2023-03-11T13:45:08.630Z,98837.16
2023-03-11T13:47:38.025Z,98838.84
2023-03-11T13:50:09.417Z,98833.97
2023-03-11T13:52:39.689Z,98823.16
2023-03-11T13:55:10.193Z,98817.22
2023-03-11T13:57:39.694Z,98821.63
2023-03-11T14:00:17.170Z,98810.13
2023-03-11T14:02:47.868Z,98804.28
2023-03-11T14:05:17.587Z,98828.69
2023-03-11T14:07:45.685Z,98798.78
2023-03-11T14:10:31.643Z,98813.28
2023-03-11T14:13:08.465Z,98817.56
2023-03-11T14:15:43.931Z,98815.66
2023-03-11T14:18:30.428Z,98811.94
2023-03-11T14:20:59.242Z,98808.72
2023-03-11T14:23:29.523Z,98810.25
2023-03-11T14:26:01.567Z,98791.56
2023-03-11T14:28:33.064Z,98792.69
2023-03-11T14:31:01.779Z,98776.06
2023-03-11T14:33:29.988Z,98772.44
2023-03-11T14:35:59.011Z,98763.44
2023-03-11T14:38:28.129Z,98755.84
2023-03-11T14:40:57.289Z,98760.72
2023-03-11T14:43:25.438Z,98760.03
2023-03-11T14:45:56.028Z,98755.88
2023-03-11T14:48:27.093Z,98756.59
2023-03-11T14:50:57.930Z,98770.19
2023-03-11T14:53:27.819Z,98744.81
2023-03-11T14:55:57.678Z,98750.25
2023-03-11T14:58:30.344Z,98747.59
2023-03-11T15:01:03.507Z,98747.16
2023-03-11T15:03:32.889Z,98733.69
2023-03-11T15:06:04.232Z,98743.28
2023-03-11T15:08:33.562Z,98739.25
2023-03-11T15:11:03.328Z,98738.97
2023-03-11T15:13:31.838Z,98737.19
2023-03-11T15:16:01.962Z,98743.44
2023-03-11T15:18:32.492Z,98744.81
2023-03-11T15:21:07.966Z,98732.19
2023-03-11T15:23:37.644Z,98731.78
2023-03-11T15:26:07.189Z,98730.53
2023-03-11T15:28:37.973Z,98720.81
2023-03-11T15:31:17.735Z,98724.13
2023-03-11T15:33:46.195Z,98723.03
2023-03-11T15:36:30.674Z,98719.16
2023-03-11T15:39:12.670Z,98699.59
2023-03-11T15:41:40.739Z,98709.44
2023-03-11T15:44:22.787Z,98703.59
2023-03-11T15:46:53.211Z,98695.69
2023-03-11T15:49:21.438Z,98694.59
2023-03-11T15:51:49.513Z,98693.78
2023-03-11T15:54:17.609Z,98701.41
2023-03-11T15:56:46.056Z,98681.84
2023-03-11T15:59:16.208Z,98697.13
2023-03-11T16:01:44.667Z,98682.97
2023-03-11T16:04:16.351Z,98679.19
2023-03-11T16:06:44.978Z,98688.78
2023-03-11T16:09:13.322Z,98676.97
2023-03-11T16:11:42.094Z,98665.72
2023-03-11T16:14:15.809Z,98659.34
2023-03-11T16:16:44.026Z,98662.56
2023-03-11T16:19:12.326Z,98648.38
2023-03-11T16:21:44.368Z,98642.16
2023-03-11T16:24:17.950Z,98648.81
2023-03-11T16:26:46.086Z,98649.78
2023-03-11T16:29:19.479Z,98646.03
2023-03-11T16:31:49.346Z,98629.81
2023-03-11T16:34:17.411Z,98643.00
2023-03-11T16:36:46.868Z,98640.47
2023-03-11T16:39:15.534Z,98611.56
2023-03-11T16:41:44.660Z,98601.72
2023-03-11T16:44:12.722Z,98594.25
2023-03-11T16:46:40.845Z,98606.28
2023-03-11T16:49:08.884Z,98595.72
2023-03-11T16:51:36.953Z,98608.53
2023-03-11T16:54:06.527Z,98585.06
2023-03-11T16:56:35.503Z,98588.09
2023-03-11T16:59:04.520Z,98574.91
2023-03-11T17:01:32.677Z,98571.81
2023-03-11T17:04:00.792Z,98567.09
2023-03-11T17:06:28.968Z,98570.25
2023-03-11T17:08:57.092Z,98563.59
2023-03-11T17:11:28.554Z,98553.03
2023-03-11T17:14:03.252Z,98555.50
2023-03-11T17:16:41.858Z,98566.38
2023-03-11T17:19:09.916Z,98543.59
2023-03-11T17:21:38.063Z,98543.16
2023-03-11T17:24:07.287Z,98539.25
2023-03-11T17:26:36.788Z,98541.19
2023-03-11T17:29:05.002Z,98530.66
2023-03-11T17:31:33.160Z,98537.44
2023-03-11T17:34:01.500Z,98508.41
2023-03-11T17:36:29.533Z,98507.59
2023-03-11T17:38:57.502Z,98501.69
2023-03-11T17:41:25.551Z,98512.94
2023-03-11T17:43:54.912Z,98496.41
2023-03-11T17:46:23.800Z,98493.78
2023-03-11T17:48:51.826Z,98478.34
2023-03-11T17:51:21.335Z,98475.69
2023-03-11T17:53:50.172Z,98471.50
2023-03-11T17:56:19.060Z,98460.19
2023-03-11T17:58:47.358Z,98457.09
2023-03-11T18:01:17.861Z,98467.22
2023-03-11T18:03:46.210Z,98459.13
2023-03-11T18:06:14.618Z,98452.19
2023-03-11T18:08:42.823Z,98443.66
2023-03-11T18:11:12.040Z,98440.34
2023-03-11T18:13:41.115Z,98449.09
2023-03-11T18:16:10.249Z,98446.97
2023-03-11T18:18:40.836Z,98449.91
2023-03-11T18:21:09.649Z,98434.25
2023-03-11T18:23:38.885Z,98433.09
2023-03-11T18:26:08.030Z,98431.13
2023-03-11T18:28:36.473Z,98439.59
2023-03-11T18:31:08.275Z,98432.34
2023-03-11T18:33:36.898Z,98428.84
2023-03-11T18:36:17.036Z,98421.78
2023-03-11T18:38:45.168Z,98432.88
2023-03-11T18:41:13.313Z,98426.31
2023-03-11T18:43:41.593Z,98407.81
2023-03-11T18:46:10.445Z,98402.38
2023-03-11T18:48:39.019Z,98407.50
2023-03-11T18:51:08.500Z,98403.06
2023-03-11T18:53:38.248Z,98376.84
2023-03-11T18:56:07.143Z,98365.00
2023-03-11T18:58:35.350Z,98360.88
2023-03-11T19:01:07.195Z,98361.88
2023-03-11T19:03:35.577Z,98365.72
2023-03-11T19:06:03.791Z,98358.63
2023-03-11T19:08:31.812Z,98339.13
2023-03-11T19:11:01.329Z,98336.34
2023-03-11T19:13:40.680Z,98351.81
2023-03-11T19:16:13.070Z,98333.19
2023-03-11T19:18:41.129Z,98323.94
2023-03-11T19:21:09.786Z,98328.56
2023-03-11T19:23:37.828Z,98325.78
2023-03-11T19:26:07.758Z,98308.91
2023-03-11T19:28:36.204Z,98315.84
2023-03-11T19:31:05.261Z,98303.97
2023-03-11T19:33:33.450Z,98300.19
2023-03-11T19:36:02.432Z,98290.31
2023-03-11T19:38:31.043Z,98289.13
2023-03-11T19:41:02.670Z,98270.50
2023-03-11T19:43:32.352Z,98267.69
2023-03-11T19:46:00.525Z,98272.47
2023-03-11T19:48:28.638Z,98260.44
2023-03-11T19:50:58.569Z,98256.97
2023-03-11T19:53:27.260Z,98246.91
2023-03-11T19:55:56.878Z,98241.44
2023-03-11T19:58:28.682Z,98238.97
2023-03-11T20:00:59.547Z,98231.88
2023-03-11T20:03:27.985Z,98230.88
2023-03-11T20:05:58.054Z,98240.50
2023-03-11T20:08:26.979Z,98228.75
2023-03-11T20:10:55.161Z,98245.59
2023-03-11T20:13:23.304Z,98234.72
2023-03-11T20:15:51.526Z,98207.63
2023-03-11T20:18:21.044Z,98208.94
2023-03-11T20:20:49.219Z,98222.31
2023-03-11T20:23:17.331Z,98189.75
2023-03-11T20:25:45.548Z,98181.50
2023-03-11T20:28:13.604Z,98163.50
2023-03-11T20:30:41.618Z,98166.63
2023-03-11T20:33:10.022Z,98157.53
2023-03-11T20:35:41.163Z,98161.16
2023-03-11T20:38:11.022Z,98153.72
2023-03-11T20:40:39.157Z,98140.34
2023-03-11T20:43:07.255Z,98139.19
2023-03-11T20:45:35.260Z,98134.06
2023-03-11T20:48:03.453Z,98131.41
2023-03-11T20:50:31.547Z,98117.88
2023-03-11T20:53:01.011Z,98108.44
2023-03-11T20:55:29.202Z,98112.91
2023-03-11T20:57:57.260Z,98106.47
2023-03-11T21:00:25.502Z,98112.25
2023-03-11T21:02:53.756Z,98103.31
2023-03-11T21:05:22.045Z,98097.00
2023-03-11T21:07:50.258Z,98087.09
2023-03-11T21:10:19.861Z,98068.06
2023-03-11T21:12:48.246Z,98064.78
2023-03-11T21:15:16.342Z,98049.38
2023-03-11T21:17:44.686Z,98039.13
2023-03-11T21:20:13.552Z,98031.19
2023-03-11T21:22:41.657Z,98037.78
2023-03-11T21:25:10.339Z,98029.69
2023-03-11T21:27:39.858Z,98026.53
2023-03-11T21:30:08.549Z,98024.53
2023-03-11T21:32:36.820Z,98001.53
2023-03-11T21:35:05.224Z,98006.16
2023-03-11T21:37:33.399Z,97997.84
2023-03-11T21:40:01.639Z,97988.75
2023-03-11T21:42:30.726Z,97979.47
2023-03-11T21:45:00.748Z,97975.47
2023-03-11T21:47:28.982Z,97969.34
2023-03-11T21:49:57.058Z,97943.53
2023-03-11T21:52:25.230Z,97957.25
2023-03-11T21:54:53.208Z,97949.47
2023-03-11T21:57:21.199Z,97950.13
2023-03-11T21:59:49.495Z,97941.03
2023-03-11T22:02:19.017Z,97939.19
2023-03-11T22:04:47.180Z,97925.63
2023-03-11T22:07:15.504Z,97919.13
2023-03-11T22:09:43.773Z,97909.84
2023-03-11T22:12:12.027Z,97908.66
2023-03-11T22:14:40.205Z,97903.50
2023-03-11T22:17:08.389Z,97904.84
2023-03-11T22:19:38.104Z,97897.19
2023-03-11T22:22:06.348Z,97897.84
2023-03-11T22:24:34.391Z,97896.00
2023-03-11T22:27:02.547Z,97885.72
2023-03-11T22:29:30.788Z,97883.72
2023-03-11T22:31:58.843Z,97882.34
2023-03-11T22:34:27.012Z,97878.34
2023-03-11T22:36:56.523Z,97884.66
2023-03-11T22:39:24.759Z,97869.06
2023-03-11T22:41:52.796Z,97869.53
2023-03-11T22:44:20.816Z,97872.66
2023-03-11T22:46:48.898Z,97856.75
2023-03-11T22:49:17.169Z,97860.69
2023-03-11T22:51:45.310Z,97849.06
2023-03-11T22:54:14.774Z,97844.59
2023-03-11T22:56:43.098Z,97845.03
2023-03-11T22:59:11.210Z,97840.56
2023-03-11T23:01:39.178Z,97843.22
2023-03-11T23:04:07.261Z,97821.66
2023-03-11T23:06:35.343Z,97810.03
2023-03-11T23:09:03.734Z,97816.66
2023-03-11T23:11:33.210Z,97807.84
2023-03-11T23:14:01.336Z,97801.38
2023-03-11T23:16:29.966Z,97797.75
2023-03-11T23:18:58.051Z,97788.41
2023-03-11T23:21:27.099Z,97779.91
2023-03-11T23:23:55.726Z,97777.25
2023-03-11T23:26:24.108Z,97772.75
2023-03-11T23:28:53.950Z,97757.31
2023-03-11T23:31:23.184Z,97750.63
2023-03-11T23:33:51.418Z,97746.59
2023-03-11T23:36:20.655Z,97742.41
2023-03-11T23:38:49.847Z,97738.56
2023-03-11T23:41:19.136Z,97734.91
2023-03-11T23:43:47.284Z,97728.22
2023-03-11T23:46:16.903Z,97716.78
2023-03-11T23:48:44.929Z,97713.75
2023-03-11T23:51:13.455Z,97710.28
2023-03-11T23:53:41.441Z,97711.56
2023-03-11T23:56:10.373Z,97697.28
2023-03-11T23:58:38.403Z,97693.69
